Dirección General De Aeronáutica Civil

Dirección Meteorológica de Chile - Servicios Climáticos

Informe General de Control de Calidad de la Estación

Listado de niveles de control de calidad para algunos parámetros
Estación San Fernando Liceo Agrícola, El Carmen (FDF) (340053)
Fecha de Revisión de los datos :

Elementos

Registros Niveles de Control Total
Nivel 0 Nivel 1 Nivel 2 Nivel 3 Errores Porcentaje
01 Temperatura del Aire Seco 55.076 0 . 56 0.10 % 0 . 0 . 56 0.10 %
02 Temperatura de Rocío 31.492 0 . 0 . 0 . 0 . 0 0.00 %
03 Humedad Relativa del Aire 123.198 0 . 0 . 0 . 0 . 0 0.00 %
04 Temperatura Máxima PM 9.346 0 . 0 . 42 0.45 % 0 . 42 0.45 %
05 Temperatura Mínima AM 9.311 0 . 0 . 18 0.19 % 0 . 18 0.19 %
06 Viento a 10 m. de Altura 11.824 0 . 98 0.83 % 0 . 0 . 98 0.83 %
07 Agua Caida, Acumulada 6 Horas 21.725 0 . 0 . 0 . 0 . 0 0.00 %
08 Presión Atm. a Nivel de Estación (QFE) 122.738 0 . 2 0.00 % 0 . 0 . 2 0.00 %
09 Presión Atm. a Nivel Medio del Mar (QFF) 28.464 0 . 0 . 0 . 0 . 0 0.00 %
10 Presión Atm. Estándar OACI (QNH) 28.464 0 . 0 . 0 . 0 . 0 0.00 %

Totales

441.638 . 0.0000 % . 0.0353 % . 0.0136 % . 0.0000 % 216 0.0489 %

Detalle de Errores Recientes

Fecha del Dato Descripción Información Error Fecha Ingreso
1990-06-24 12:00:00 Temperatura 5.0 del 24-06-1990 12:00, Menor que la Mínima 5.1 24-06-1990 12:00 5.0 -- 5.1 2023-12-29 04:44:00
1990-07-31 12:00:00 Temperatura 6.0 del 31-07-1990 12:00, Menor que la Mínima 6.3 31-07-1990 12:00 6.0 -- 6.3 2023-12-29 04:44:00
1991-04-13 12:00:00 Temperatura 12.2 del 13-04-1991 12:00, Menor que la Mínima 14.5 13-04-1991 12:00 12.2 -- 14.5 2023-12-29 04:45:00
1999-05-28 12:00:00 Temperatura 9.4 del 28-05-1999 12:00, Menor que la Mínima 9.9 28-05-1999 12:00 9.4 -- 9.9 2023-12-29 04:58:00
2000-05-01 12:00:00 Temperatura 10.8 del 01-05-2000 12:00, Menor que la Mínima 11.1 01-05-2000 12:00 10.8 -- 11.1 2023-12-29 04:59:00
2001-05-12 12:00:00 Temperatura -1.0 del 12-05-2001 12:00, Menor que la Mínima 0.1 12-05-2001 12:00 -1.0 -- 0.1 2023-12-29 05:00:00
2001-06-05 12:00:00 Temperatura 0.5 del 05-06-2001 12:00, Menor que la Mínima 0.9 05-06-2001 12:00 0.5 -- 0.9 2023-12-29 05:00:00
2001-08-10 12:00:00 Temperatura 5.6 del 10-08-2001 12:00, Menor que la Mínima 6.0 10-08-2001 12:00 5.6 -- 6.0 2023-12-29 05:01:00
2001-08-11 12:00:00 Temperatura 9.6 del 11-08-2001 12:00, Menor que la Mínima 10.0 11-08-2001 12:00 9.6 -- 10.0 2023-12-29 05:01:00
2001-08-16 12:00:00 Temperatura 2.9 del 16-08-2001 12:00, Menor que la Mínima 3.0 16-08-2001 12:00 2.9 -- 3.0 2023-12-29 05:01:00
2001-08-29 12:00:00 Temperatura 8.0 del 29-08-2001 12:00, Menor que la Mínima 8.2 29-08-2001 12:00 8.0 -- 8.2 2023-12-29 05:01:00
2001-09-02 12:00:00 Temperatura 3.4 del 02-09-2001 12:00, Menor que la Mínima 3.6 02-09-2001 12:00 3.4 -- 3.6 2023-12-29 05:01:00
2001-09-23 12:00:00 Temperatura 10.4 del 23-09-2001 12:00, Menor que la Mínima 11.0 23-09-2001 12:00 10.4 -- 11.0 2023-12-29 05:01:00
2001-10-02 12:00:00 Temperatura 13.9 del 02-10-2001 12:00, Menor que la Mínima 14.0 02-10-2001 12:00 13.9 -- 14.0 2023-12-29 05:01:00
2001-10-03 12:00:00 Temperatura 10.8 del 03-10-2001 12:00, Menor que la Mínima 11.8 03-10-2001 12:00 10.8 -- 11.8 2023-12-29 05:01:00
2001-10-19 12:00:00 Temperatura 10.6 del 19-10-2001 12:00, Menor que la Mínima 11.0 19-10-2001 12:00 10.6 -- 11.0 2023-12-29 05:01:00
2001-10-20 12:00:00 Temperatura 6.4 del 20-10-2001 12:00, Menor que la Mínima 6.5 20-10-2001 12:00 6.4 -- 6.5 2023-12-29 05:01:00
2002-07-18 12:00:00 Temperatura 2.6 del 18-07-2002 12:00, Menor que la Mínima 6.0 18-07-2002 12:00 2.6 -- 6.0 2023-12-29 05:02:00
1991-06-09 00:00:00 Temperatura 18.0 del 08-06-1991 18:00, Mayor que la Máxima 13.0 09-06-1991 00:00 18.0 -- 13.0 2023-12-29 04:46:00
1997-10-08 00:00:00 Temperatura 19.2 del 07-10-1997 18:00, Mayor que la Máxima 17.0 08-10-1997 00:00 19.2 -- 17.0 2023-12-29 04:56:00
1999-05-14 00:00:00 Temperatura 11.8 del 13-05-1999 18:00, Mayor que la Máxima 11.0 14-05-1999 00:00 11.8 -- 11.0 2023-12-29 04:58:00
1999-08-11 00:00:00 Temperatura 19.6 del 10-08-1999 18:00, Mayor que la Máxima 16.1 11-08-1999 00:00 19.6 -- 16.1 2023-12-29 04:58:00
1999-11-23 00:00:00 Temperatura 26.2 del 22-11-1999 18:00, Mayor que la Máxima 25.9 23-11-1999 00:00 26.2 -- 25.9 2023-12-29 04:59:00
2000-05-06 00:00:00 Temperatura 18.8 del 05-05-2000 18:00, Mayor que la Máxima 18.0 06-05-2000 00:00 18.8 -- 18.0 2023-12-29 04:59:00
2000-05-09 00:00:00 Temperatura 18.0 del 08-05-2000 18:00, Mayor que la Máxima 17.0 09-05-2000 00:00 18.0 -- 17.0 2023-12-29 04:59:00
2000-05-11 00:00:00 Temperatura 14.2 del 10-05-2000 18:00, Mayor que la Máxima 13.5 11-05-2000 00:00 14.2 -- 13.5 2023-12-29 04:59:00
2000-05-13 00:00:00 Temperatura 16.0 del 12-05-2000 18:00, Mayor que la Máxima 15.5 13-05-2000 00:00 16.0 -- 15.5 2023-12-29 04:59:00
2000-10-02 00:00:00 Temperatura 14.8 del 02-10-2000 00:00, Mayor que la Máxima 14.6 02-10-2000 00:00 14.8 -- 14.6 2023-12-29 05:00:00
2001-04-11 00:00:00 Temperatura 17.2 del 10-04-2001 18:00, Mayor que la Máxima 17.0 11-04-2001 00:00 17.2 -- 17.0 2023-12-29 05:00:00
2001-04-12 00:00:00 Temperatura 22.2 del 11-04-2001 18:00, Mayor que la Máxima 22.0 12-04-2001 00:00 22.2 -- 22.0 2023-12-29 05:00:00
2001-04-14 00:00:00 Temperatura 16.0 del 14-04-2001 00:00, Mayor que la Máxima 15.5 14-04-2001 00:00 16.0 -- 15.5 2023-12-29 05:00:00
2001-04-20 00:00:00 Temperatura 19.9 del 20-04-2001 00:00, Mayor que la Máxima 18.0 20-04-2001 00:00 19.9 -- 18.0 2023-12-29 05:00:00
2001-04-22 00:00:00 Temperatura 14.1 del 21-04-2001 18:00, Mayor que la Máxima 14.0 22-04-2001 00:00 14.1 -- 14.0 2023-12-29 05:00:00
2001-05-01 00:00:00 Temperatura 13.6 del 30-04-2001 18:00, Mayor que la Máxima 13.5 01-05-2001 00:00 13.6 -- 13.5 2023-12-29 05:00:00
2001-05-06 00:00:00 Temperatura 11.6 del 05-05-2001 18:00, Mayor que la Máxima 11.0 06-05-2001 00:00 11.6 -- 11.0 2023-12-29 05:00:00
2001-05-09 00:00:00 Temperatura 13.1 del 08-05-2001 18:00, Mayor que la Máxima 12.6 09-05-2001 00:00 13.1 -- 12.6 2023-12-29 05:00:00
2001-05-10 00:00:00 Temperatura 13.2 del 09-05-2001 18:00, Mayor que la Máxima 9.0 10-05-2001 00:00 13.2 -- 9.0 2023-12-29 05:00:00
2001-05-12 00:00:00 Temperatura 8.5 del 11-05-2001 18:00, Mayor que la Máxima 7.0 12-05-2001 00:00 8.5 -- 7.0 2023-12-29 05:00:00
2001-05-14 00:00:00 Temperatura 11.5 del 13-05-2001 18:00, Mayor que la Máxima 11.1 14-05-2001 00:00 11.5 -- 11.1 2023-12-29 05:00:00
2001-05-15 00:00:00 Temperatura 11.5 del 14-05-2001 18:00, Mayor que la Máxima 11.0 15-05-2001 00:00 11.5 -- 11.0 2023-12-29 05:00:00
2001-05-17 00:00:00 Temperatura 16.2 del 16-05-2001 18:00, Mayor que la Máxima 16.0 17-05-2001 00:00 16.2 -- 16.0 2023-12-29 05:00:00
2001-05-19 00:00:00 Temperatura 16.2 del 18-05-2001 18:00, Mayor que la Máxima 16.0 19-05-2001 00:00 16.2 -- 16.0 2023-12-29 05:00:00
2001-05-22 00:00:00 Temperatura 12.4 del 21-05-2001 18:00, Mayor que la Máxima 12.0 22-05-2001 00:00 12.4 -- 12.0 2023-12-29 05:00:00
2001-05-23 00:00:00 Temperatura 18.6 del 22-05-2001 18:00, Mayor que la Máxima 18.0 23-05-2001 00:00 18.6 -- 18.0 2023-12-29 05:00:00
2001-05-24 00:00:00 Temperatura 15.6 del 23-05-2001 18:00, Mayor que la Máxima 15.5 24-05-2001 00:00 15.6 -- 15.5 2023-12-29 05:00:00
2001-05-25 00:00:00 Temperatura 11.2 del 24-05-2001 18:00, Mayor que la Máxima 10.9 25-05-2001 00:00 11.2 -- 10.9 2023-12-29 05:00:00
2001-05-26 00:00:00 Temperatura 13.2 del 25-05-2001 18:00, Mayor que la Máxima 12.0 26-05-2001 00:00 13.2 -- 12.0 2023-12-29 05:00:00
2001-05-28 00:00:00 Temperatura 18.6 del 27-05-2001 18:00, Mayor que la Máxima 17.0 28-05-2001 00:00 18.6 -- 17.0 2023-12-29 05:00:00
2001-05-29 00:00:00 Temperatura 21.0 del 28-05-2001 18:00, Mayor que la Máxima 18.0 29-05-2001 00:00 21.0 -- 18.0 2023-12-29 05:00:00
2001-05-30 00:00:00 Temperatura 11.0 del 29-05-2001 18:00, Mayor que la Máxima 10.0 30-05-2001 00:00 11.0 -- 10.0 2023-12-29 05:00:00
2001-05-31 00:00:00 Temperatura 14.0 del 30-05-2001 18:00, Mayor que la Máxima 11.0 31-05-2001 00:00 14.0 -- 11.0 2023-12-29 05:00:00
2001-06-14 00:00:00 Temperatura 12.2 del 14-06-2001 00:00, Mayor que la Máxima 12.0 14-06-2001 00:00 12.2 -- 12.0 2023-12-29 05:00:00
2001-06-28 00:00:00 Temperatura 14.1 del 27-06-2001 18:00, Mayor que la Máxima 14.0 28-06-2001 00:00 14.1 -- 14.0 2023-12-29 05:00:00
2001-07-07 00:00:00 Temperatura 12.4 del 06-07-2001 18:00, Mayor que la Máxima 12.0 07-07-2001 00:00 12.4 -- 12.0 2023-12-29 05:00:00
2001-07-08 00:00:00 Temperatura 11.4 del 07-07-2001 18:00, Mayor que la Máxima 11.2 08-07-2001 00:00 11.4 -- 11.2 2023-12-29 05:00:00
2001-07-26 00:00:00 Temperatura 9.0 del 26-07-2001 00:00, Mayor que la Máxima 6.8 26-07-2001 00:00 9.0 -- 6.8 2023-12-29 05:00:00
2001-08-01 00:00:00 Temperatura 13.2 del 31-07-2001 18:00, Mayor que la Máxima 13.0 01-08-2001 00:00 13.2 -- 13.0 2023-12-29 05:00:00
2001-08-30 00:00:00 Temperatura 10.0 del 30-08-2001 00:00, Mayor que la Máxima 9.2 30-08-2001 00:00 10.0 -- 9.2 2023-12-29 05:01:00
2002-11-07 00:00:00 Temperatura 16.8 del 06-11-2002 18:00, Mayor que la Máxima 13.0 07-11-2002 00:00 16.8 -- 13.0 2023-12-29 05:03:00
2005-04-19 00:00:00 Temperatura 24.4 del 18-04-2005 18:00, Mayor que la Máxima 21.5 19-04-2005 00:00 24.4 -- 21.5 2023-12-31 02:44:00
1999-08-02 00:00:00 No se informa dirección del Viento (dd), pero si una fuerza y el viento no es variable 2023-12-29 04:58:00
1999-08-04 00:00:00 No se informa dirección del Viento (dd), pero si una fuerza y el viento no es variable 2023-12-29 04:58:00
1999-08-06 00:00:00 No se informa dirección del Viento (dd), pero si una fuerza y el viento no es variable 2023-12-29 04:58:00
1999-08-07 00:00:00 No se informa dirección del Viento (dd), pero si una fuerza y el viento no es variable 2023-12-29 04:58:00
1999-08-08 00:00:00 No se informa dirección del Viento (dd), pero si una fuerza y el viento no es variable 2023-12-29 04:58:00
1999-08-09 00:00:00 No se informa dirección del Viento (dd), pero si una fuerza y el viento no es variable 2023-12-29 04:58:00
1999-08-10 00:00:00 No se informa dirección del Viento (dd), pero si una fuerza y el viento no es variable 2023-12-29 04:58:00
1999-08-12 00:00:00 No se informa dirección del Viento (dd), pero si una fuerza y el viento no es variable 2023-12-29 04:58:00
1999-08-17 00:00:00 No se informa dirección del Viento (dd), pero si una fuerza y el viento no es variable 2023-12-29 04:58:00
1999-08-19 00:00:00 No se informa dirección del Viento (dd), pero si una fuerza y el viento no es variable 2023-12-29 04:58:00
1999-08-21 00:00:00 No se informa dirección del Viento (dd), pero si una fuerza y el viento no es variable 2023-12-29 04:58:00
1999-08-22 00:00:00 No se informa dirección del Viento (dd), pero si una fuerza y el viento no es variable 2023-12-29 04:58:00
1999-08-26 00:00:00 No se informa dirección del Viento (dd), pero si una fuerza y el viento no es variable 2023-12-29 04:58:00
1999-08-31 00:00:00 No se informa dirección del Viento (dd), pero si una fuerza y el viento no es variable 2023-12-29 04:58:00
1999-09-03 00:00:00 No se informa dirección del Viento (dd), pero si una fuerza y el viento no es variable 2023-12-29 04:58:00
1999-09-06 00:00:00 No se informa dirección del Viento (dd), pero si una fuerza y el viento no es variable 2023-12-29 04:58:00
1999-09-08 00:00:00 No se informa dirección del Viento (dd), pero si una fuerza y el viento no es variable 2023-12-29 04:58:00
1999-09-09 00:00:00 No se informa dirección del Viento (dd), pero si una fuerza y el viento no es variable 2023-12-29 04:58:00
1999-09-10 00:00:00 No se informa dirección del Viento (dd), pero si una fuerza y el viento no es variable 2023-12-29 04:58:00
1999-09-11 00:00:00 No se informa dirección del Viento (dd), pero si una fuerza y el viento no es variable 2023-12-29 04:58:00
1999-09-13 00:00:00 No se informa dirección del Viento (dd), pero si una fuerza y el viento no es variable 2023-12-29 04:58:00
1999-09-15 00:00:00 No se informa dirección del Viento (dd), pero si una fuerza y el viento no es variable 2023-12-29 04:58:00
1999-09-16 00:00:00 No se informa dirección del Viento (dd), pero si una fuerza y el viento no es variable 2023-12-29 04:58:00
1999-09-17 00:00:00 No se informa dirección del Viento (dd), pero si una fuerza y el viento no es variable 2023-12-29 04:58:00
1999-09-18 00:00:00 No se informa dirección del Viento (dd), pero si una fuerza y el viento no es variable 2023-12-29 04:58:00
1999-09-19 00:00:00 No se informa dirección del Viento (dd), pero si una fuerza y el viento no es variable 2023-12-29 04:58:00
1999-09-20 00:00:00 No se informa dirección del Viento (dd), pero si una fuerza y el viento no es variable 2023-12-29 04:58:00
1999-09-21 00:00:00 No se informa dirección del Viento (dd), pero si una fuerza y el viento no es variable 2023-12-29 04:58:00
1999-09-22 00:00:00 No se informa dirección del Viento (dd), pero si una fuerza y el viento no es variable 2023-12-29 04:58:00
1999-09-25 00:00:00 No se informa dirección del Viento (dd), pero si una fuerza y el viento no es variable 2023-12-29 04:58:00
1999-09-27 00:00:00 No se informa dirección del Viento (dd), pero si una fuerza y el viento no es variable 2023-12-29 04:58:00
1999-09-28 00:00:00 No se informa dirección del Viento (dd), pero si una fuerza y el viento no es variable 2023-12-29 04:58:00
1999-09-29 00:00:00 No se informa dirección del Viento (dd), pero si una fuerza y el viento no es variable 2023-12-29 04:59:00
1999-10-07 00:00:00 No se informa dirección del Viento (dd), pero si una fuerza y el viento no es variable 2023-12-29 04:59:00
1999-10-08 00:00:00 No se informa dirección del Viento (dd), pero si una fuerza y el viento no es variable 2023-12-29 04:59:00
1999-10-09 00:00:00 No se informa dirección del Viento (dd), pero si una fuerza y el viento no es variable 2023-12-29 04:59:00
1999-10-11 00:00:00 No se informa dirección del Viento (dd), pero si una fuerza y el viento no es variable 2023-12-29 04:59:00
1999-10-12 00:00:00 No se informa dirección del Viento (dd), pero si una fuerza y el viento no es variable 2023-12-29 04:59:00
1999-10-14 00:00:00 No se informa dirección del Viento (dd), pero si una fuerza y el viento no es variable 2023-12-29 04:59:00
1999-10-16 00:00:00 No se informa dirección del Viento (dd), pero si una fuerza y el viento no es variable 2023-12-29 04:59:00
1999-10-17 00:00:00 No se informa dirección del Viento (dd), pero si una fuerza y el viento no es variable 2023-12-29 04:59:00
1999-10-18 00:00:00 No se informa dirección del Viento (dd), pero si una fuerza y el viento no es variable 2023-12-29 04:59:00
1999-10-21 00:00:00 No se informa dirección del Viento (dd), pero si una fuerza y el viento no es variable 2023-12-29 04:59:00
1999-10-22 00:00:00 No se informa dirección del Viento (dd), pero si una fuerza y el viento no es variable 2023-12-29 04:59:00
1999-10-26 00:00:00 No se informa dirección del Viento (dd), pero si una fuerza y el viento no es variable 2023-12-29 04:59:00
1999-10-28 00:00:00 No se informa dirección del Viento (dd), pero si una fuerza y el viento no es variable 2023-12-29 04:59:00
1999-10-29 00:00:00 No se informa dirección del Viento (dd), pero si una fuerza y el viento no es variable 2023-12-29 04:59:00
1999-11-02 00:00:00 No se informa dirección del Viento (dd), pero si una fuerza y el viento no es variable 2023-12-29 04:59:00
1999-11-03 00:00:00 No se informa dirección del Viento (dd), pero si una fuerza y el viento no es variable 2023-12-29 04:59:00
1999-11-04 00:00:00 No se informa dirección del Viento (dd), pero si una fuerza y el viento no es variable 2023-12-29 04:59:00
1999-11-05 00:00:00 No se informa dirección del Viento (dd), pero si una fuerza y el viento no es variable 2023-12-29 04:59:00
1999-11-06 00:00:00 No se informa dirección del Viento (dd), pero si una fuerza y el viento no es variable 2023-12-29 04:59:00
1999-11-07 00:00:00 No se informa dirección del Viento (dd), pero si una fuerza y el viento no es variable 2023-12-29 04:59:00
1999-11-08 00:00:00 No se informa dirección del Viento (dd), pero si una fuerza y el viento no es variable 2023-12-29 04:59:00
1999-11-13 00:00:00 No se informa dirección del Viento (dd), pero si una fuerza y el viento no es variable 2023-12-29 04:59:00
1999-11-16 00:00:00 No se informa dirección del Viento (dd), pero si una fuerza y el viento no es variable 2023-12-29 04:59:00
1999-11-17 00:00:00 No se informa dirección del Viento (dd), pero si una fuerza y el viento no es variable 2023-12-29 04:59:00
1999-11-18 00:00:00 No se informa dirección del Viento (dd), pero si una fuerza y el viento no es variable 2023-12-29 04:59:00
1999-11-19 00:00:00 No se informa dirección del Viento (dd), pero si una fuerza y el viento no es variable 2023-12-29 04:59:00
1999-11-20 00:00:00 No se informa dirección del Viento (dd), pero si una fuerza y el viento no es variable 2023-12-29 04:59:00
1999-11-21 00:00:00 No se informa dirección del Viento (dd), pero si una fuerza y el viento no es variable 2023-12-29 04:59:00
1999-11-22 00:00:00 No se informa dirección del Viento (dd), pero si una fuerza y el viento no es variable 2023-12-29 04:59:00
1999-11-23 00:00:00 No se informa dirección del Viento (dd), pero si una fuerza y el viento no es variable 2023-12-29 04:59:00
1999-11-24 00:00:00 No se informa dirección del Viento (dd), pero si una fuerza y el viento no es variable 2023-12-29 04:59:00
1999-11-25 00:00:00 No se informa dirección del Viento (dd), pero si una fuerza y el viento no es variable 2023-12-29 04:59:00
1999-11-26 00:00:00 No se informa dirección del Viento (dd), pero si una fuerza y el viento no es variable 2023-12-29 04:59:00
1999-11-27 00:00:00 No se informa dirección del Viento (dd), pero si una fuerza y el viento no es variable 2023-12-29 04:59:00
1999-11-28 00:00:00 No se informa dirección del Viento (dd), pero si una fuerza y el viento no es variable 2023-12-29 04:59:00
1999-11-29 00:00:00 No se informa dirección del Viento (dd), pero si una fuerza y el viento no es variable 2023-12-29 04:59:00
1999-11-30 00:00:00 No se informa dirección del Viento (dd), pero si una fuerza y el viento no es variable 2023-12-29 04:59:00
1999-12-01 00:00:00 No se informa dirección del Viento (dd), pero si una fuerza y el viento no es variable 2023-12-29 04:59:00
1999-12-02 00:00:00 No se informa dirección del Viento (dd), pero si una fuerza y el viento no es variable 2023-12-29 04:59:00
1999-12-03 00:00:00 No se informa dirección del Viento (dd), pero si una fuerza y el viento no es variable 2023-12-29 04:59:00
1999-12-04 00:00:00 No se informa dirección del Viento (dd), pero si una fuerza y el viento no es variable 2023-12-29 04:59:00
1999-12-05 00:00:00 No se informa dirección del Viento (dd), pero si una fuerza y el viento no es variable 2023-12-29 04:59:00
1999-12-06 00:00:00 No se informa dirección del Viento (dd), pero si una fuerza y el viento no es variable 2023-12-29 04:59:00
1999-12-07 00:00:00 No se informa dirección del Viento (dd), pero si una fuerza y el viento no es variable 2023-12-29 04:59:00
1999-12-08 00:00:00 No se informa dirección del Viento (dd), pero si una fuerza y el viento no es variable 2023-12-29 04:59:00
1999-12-09 00:00:00 No se informa dirección del Viento (dd), pero si una fuerza y el viento no es variable 2023-12-29 04:59:00
1999-12-10 00:00:00 No se informa dirección del Viento (dd), pero si una fuerza y el viento no es variable 2023-12-29 04:59:00
1999-12-11 00:00:00 No se informa dirección del Viento (dd), pero si una fuerza y el viento no es variable 2023-12-29 04:59:00
1999-12-12 00:00:00 No se informa dirección del Viento (dd), pero si una fuerza y el viento no es variable 2023-12-29 04:59:00
1999-12-13 00:00:00 No se informa dirección del Viento (dd), pero si una fuerza y el viento no es variable 2023-12-29 04:59:00
1999-12-14 00:00:00 No se informa dirección del Viento (dd), pero si una fuerza y el viento no es variable 2023-12-29 04:59:00
1999-12-15 00:00:00 No se informa dirección del Viento (dd), pero si una fuerza y el viento no es variable 2023-12-29 04:59:00
1999-12-16 00:00:00 No se informa dirección del Viento (dd), pero si una fuerza y el viento no es variable 2023-12-29 04:59:00
1999-12-17 00:00:00 No se informa dirección del Viento (dd), pero si una fuerza y el viento no es variable 2023-12-29 04:59:00
1999-12-18 00:00:00 No se informa dirección del Viento (dd), pero si una fuerza y el viento no es variable 2023-12-29 04:59:00
1999-12-19 00:00:00 No se informa dirección del Viento (dd), pero si una fuerza y el viento no es variable 2023-12-29 04:59:00
1999-12-20 00:00:00 No se informa dirección del Viento (dd), pero si una fuerza y el viento no es variable 2023-12-29 04:59:00
1999-12-21 00:00:00 No se informa dirección del Viento (dd), pero si una fuerza y el viento no es variable 2023-12-29 04:59:00
1999-12-24 00:00:00 No se informa dirección del Viento (dd), pero si una fuerza y el viento no es variable 2023-12-29 04:59:00
1999-12-25 00:00:00 No se informa dirección del Viento (dd), pero si una fuerza y el viento no es variable 2023-12-29 04:59:00
1999-12-26 00:00:00 No se informa dirección del Viento (dd), pero si una fuerza y el viento no es variable 2023-12-29 04:59:00
1999-12-28 00:00:00 No se informa dirección del Viento (dd), pero si una fuerza y el viento no es variable 2023-12-29 04:59:00
1999-12-29 00:00:00 No se informa dirección del Viento (dd), pero si una fuerza y el viento no es variable 2023-12-29 04:59:00
1999-12-30 00:00:00 No se informa dirección del Viento (dd), pero si una fuerza y el viento no es variable 2023-12-29 04:59:00
1999-12-31 00:00:00 No se informa dirección del Viento (dd), pero si una fuerza y el viento no es variable 2023-12-29 04:59:00
Total de Errores Recientes 158

Detalle de Errores Encontrados

Nivel Fecha del Dato Descripción Información Error Fecha Ingreso
1 1999-08-02 00:00:00 No se informa dirección del Viento (dd), pero si una fuerza y el viento no es variable 2023-12-29 04:58:00
1 1999-08-04 00:00:00 No se informa dirección del Viento (dd), pero si una fuerza y el viento no es variable 2023-12-29 04:58:00
1 1999-08-06 00:00:00 No se informa dirección del Viento (dd), pero si una fuerza y el viento no es variable 2023-12-29 04:58:00
1 1999-08-07 00:00:00 No se informa dirección del Viento (dd), pero si una fuerza y el viento no es variable 2023-12-29 04:58:00
1 1999-08-08 00:00:00 No se informa dirección del Viento (dd), pero si una fuerza y el viento no es variable 2023-12-29 04:58:00
1 1999-08-09 00:00:00 No se informa dirección del Viento (dd), pero si una fuerza y el viento no es variable 2023-12-29 04:58:00
1 1999-08-10 00:00:00 No se informa dirección del Viento (dd), pero si una fuerza y el viento no es variable 2023-12-29 04:58:00
1 1999-08-12 00:00:00 No se informa dirección del Viento (dd), pero si una fuerza y el viento no es variable 2023-12-29 04:58:00
1 1999-08-17 00:00:00 No se informa dirección del Viento (dd), pero si una fuerza y el viento no es variable 2023-12-29 04:58:00
1 1999-08-19 00:00:00 No se informa dirección del Viento (dd), pero si una fuerza y el viento no es variable 2023-12-29 04:58:00
1 1999-08-21 00:00:00 No se informa dirección del Viento (dd), pero si una fuerza y el viento no es variable 2023-12-29 04:58:00
1 1999-08-22 00:00:00 No se informa dirección del Viento (dd), pero si una fuerza y el viento no es variable 2023-12-29 04:58:00
1 1999-08-26 00:00:00 No se informa dirección del Viento (dd), pero si una fuerza y el viento no es variable 2023-12-29 04:58:00
1 1999-08-31 00:00:00 No se informa dirección del Viento (dd), pero si una fuerza y el viento no es variable 2023-12-29 04:58:00
1 1999-09-03 00:00:00 No se informa dirección del Viento (dd), pero si una fuerza y el viento no es variable 2023-12-29 04:58:00
1 1999-09-06 00:00:00 No se informa dirección del Viento (dd), pero si una fuerza y el viento no es variable 2023-12-29 04:58:00
1 1999-09-08 00:00:00 No se informa dirección del Viento (dd), pero si una fuerza y el viento no es variable 2023-12-29 04:58:00
1 1999-09-09 00:00:00 No se informa dirección del Viento (dd), pero si una fuerza y el viento no es variable 2023-12-29 04:58:00
1 1999-09-10 00:00:00 No se informa dirección del Viento (dd), pero si una fuerza y el viento no es variable 2023-12-29 04:58:00
1 1999-09-11 00:00:00 No se informa dirección del Viento (dd), pero si una fuerza y el viento no es variable 2023-12-29 04:58:00
1 1999-09-13 00:00:00 No se informa dirección del Viento (dd), pero si una fuerza y el viento no es variable 2023-12-29 04:58:00
1 1999-09-15 00:00:00 No se informa dirección del Viento (dd), pero si una fuerza y el viento no es variable 2023-12-29 04:58:00
1 1999-09-16 00:00:00 No se informa dirección del Viento (dd), pero si una fuerza y el viento no es variable 2023-12-29 04:58:00
1 1999-09-17 00:00:00 No se informa dirección del Viento (dd), pero si una fuerza y el viento no es variable 2023-12-29 04:58:00
1 1999-09-18 00:00:00 No se informa dirección del Viento (dd), pero si una fuerza y el viento no es variable 2023-12-29 04:58:00
1 1999-09-19 00:00:00 No se informa dirección del Viento (dd), pero si una fuerza y el viento no es variable 2023-12-29 04:58:00
1 1999-09-20 00:00:00 No se informa dirección del Viento (dd), pero si una fuerza y el viento no es variable 2023-12-29 04:58:00
1 1999-09-21 00:00:00 No se informa dirección del Viento (dd), pero si una fuerza y el viento no es variable 2023-12-29 04:58:00
1 1999-09-22 00:00:00 No se informa dirección del Viento (dd), pero si una fuerza y el viento no es variable 2023-12-29 04:58:00
1 1999-09-25 00:00:00 No se informa dirección del Viento (dd), pero si una fuerza y el viento no es variable 2023-12-29 04:58:00
1 1999-09-27 00:00:00 No se informa dirección del Viento (dd), pero si una fuerza y el viento no es variable 2023-12-29 04:58:00
1 1999-09-28 00:00:00 No se informa dirección del Viento (dd), pero si una fuerza y el viento no es variable 2023-12-29 04:58:00
1 1999-09-29 00:00:00 No se informa dirección del Viento (dd), pero si una fuerza y el viento no es variable 2023-12-29 04:59:00
1 1999-10-07 00:00:00 No se informa dirección del Viento (dd), pero si una fuerza y el viento no es variable 2023-12-29 04:59:00
1 1999-10-08 00:00:00 No se informa dirección del Viento (dd), pero si una fuerza y el viento no es variable 2023-12-29 04:59:00
1 1999-10-09 00:00:00 No se informa dirección del Viento (dd), pero si una fuerza y el viento no es variable 2023-12-29 04:59:00
1 1999-10-11 00:00:00 No se informa dirección del Viento (dd), pero si una fuerza y el viento no es variable 2023-12-29 04:59:00
1 1999-10-12 00:00:00 No se informa dirección del Viento (dd), pero si una fuerza y el viento no es variable 2023-12-29 04:59:00
1 1999-10-14 00:00:00 No se informa dirección del Viento (dd), pero si una fuerza y el viento no es variable 2023-12-29 04:59:00
1 1999-10-16 00:00:00 No se informa dirección del Viento (dd), pero si una fuerza y el viento no es variable 2023-12-29 04:59:00
1 1999-10-17 00:00:00 No se informa dirección del Viento (dd), pero si una fuerza y el viento no es variable 2023-12-29 04:59:00
1 1999-10-18 00:00:00 No se informa dirección del Viento (dd), pero si una fuerza y el viento no es variable 2023-12-29 04:59:00
1 1999-10-21 00:00:00 No se informa dirección del Viento (dd), pero si una fuerza y el viento no es variable 2023-12-29 04:59:00
1 1999-10-22 00:00:00 No se informa dirección del Viento (dd), pero si una fuerza y el viento no es variable 2023-12-29 04:59:00
1 1999-10-26 00:00:00 No se informa dirección del Viento (dd), pero si una fuerza y el viento no es variable 2023-12-29 04:59:00
1 1999-10-28 00:00:00 No se informa dirección del Viento (dd), pero si una fuerza y el viento no es variable 2023-12-29 04:59:00
1 1999-10-29 00:00:00 No se informa dirección del Viento (dd), pero si una fuerza y el viento no es variable 2023-12-29 04:59:00
1 1999-11-02 00:00:00 No se informa dirección del Viento (dd), pero si una fuerza y el viento no es variable 2023-12-29 04:59:00
1 1999-11-03 00:00:00 No se informa dirección del Viento (dd), pero si una fuerza y el viento no es variable 2023-12-29 04:59:00
1 1999-11-04 00:00:00 No se informa dirección del Viento (dd), pero si una fuerza y el viento no es variable 2023-12-29 04:59:00
1 1999-11-05 00:00:00 No se informa dirección del Viento (dd), pero si una fuerza y el viento no es variable 2023-12-29 04:59:00
1 1999-11-06 00:00:00 No se informa dirección del Viento (dd), pero si una fuerza y el viento no es variable 2023-12-29 04:59:00
1 1999-11-07 00:00:00 No se informa dirección del Viento (dd), pero si una fuerza y el viento no es variable 2023-12-29 04:59:00
1 1999-11-08 00:00:00 No se informa dirección del Viento (dd), pero si una fuerza y el viento no es variable 2023-12-29 04:59:00
1 1999-11-13 00:00:00 No se informa dirección del Viento (dd), pero si una fuerza y el viento no es variable 2023-12-29 04:59:00
1 1999-11-16 00:00:00 No se informa dirección del Viento (dd), pero si una fuerza y el viento no es variable 2023-12-29 04:59:00
1 1999-11-17 00:00:00 No se informa dirección del Viento (dd), pero si una fuerza y el viento no es variable 2023-12-29 04:59:00
1 1999-11-18 00:00:00 No se informa dirección del Viento (dd), pero si una fuerza y el viento no es variable 2023-12-29 04:59:00
1 1999-11-19 00:00:00 No se informa dirección del Viento (dd), pero si una fuerza y el viento no es variable 2023-12-29 04:59:00
1 1999-11-20 00:00:00 No se informa dirección del Viento (dd), pero si una fuerza y el viento no es variable 2023-12-29 04:59:00
1 1999-11-21 00:00:00 No se informa dirección del Viento (dd), pero si una fuerza y el viento no es variable 2023-12-29 04:59:00
1 1999-11-22 00:00:00 No se informa dirección del Viento (dd), pero si una fuerza y el viento no es variable 2023-12-29 04:59:00
1 1999-11-23 00:00:00 No se informa dirección del Viento (dd), pero si una fuerza y el viento no es variable 2023-12-29 04:59:00
1 1999-11-24 00:00:00 No se informa dirección del Viento (dd), pero si una fuerza y el viento no es variable 2023-12-29 04:59:00
1 1999-11-25 00:00:00 No se informa dirección del Viento (dd), pero si una fuerza y el viento no es variable 2023-12-29 04:59:00
1 1999-11-26 00:00:00 No se informa dirección del Viento (dd), pero si una fuerza y el viento no es variable 2023-12-29 04:59:00
1 1999-11-27 00:00:00 No se informa dirección del Viento (dd), pero si una fuerza y el viento no es variable 2023-12-29 04:59:00
1 1999-11-28 00:00:00 No se informa dirección del Viento (dd), pero si una fuerza y el viento no es variable 2023-12-29 04:59:00
1 1999-11-29 00:00:00 No se informa dirección del Viento (dd), pero si una fuerza y el viento no es variable 2023-12-29 04:59:00
1 1999-11-30 00:00:00 No se informa dirección del Viento (dd), pero si una fuerza y el viento no es variable 2023-12-29 04:59:00
1 1999-12-01 00:00:00 No se informa dirección del Viento (dd), pero si una fuerza y el viento no es variable 2023-12-29 04:59:00
1 1999-12-02 00:00:00 No se informa dirección del Viento (dd), pero si una fuerza y el viento no es variable 2023-12-29 04:59:00
1 1999-12-03 00:00:00 No se informa dirección del Viento (dd), pero si una fuerza y el viento no es variable 2023-12-29 04:59:00
1 1999-12-04 00:00:00 No se informa dirección del Viento (dd), pero si una fuerza y el viento no es variable 2023-12-29 04:59:00
1 1999-12-05 00:00:00 No se informa dirección del Viento (dd), pero si una fuerza y el viento no es variable 2023-12-29 04:59:00
1 1999-12-06 00:00:00 No se informa dirección del Viento (dd), pero si una fuerza y el viento no es variable 2023-12-29 04:59:00
1 1999-12-07 00:00:00 No se informa dirección del Viento (dd), pero si una fuerza y el viento no es variable 2023-12-29 04:59:00
1 1999-12-08 00:00:00 No se informa dirección del Viento (dd), pero si una fuerza y el viento no es variable 2023-12-29 04:59:00
1 1999-12-09 00:00:00 No se informa dirección del Viento (dd), pero si una fuerza y el viento no es variable 2023-12-29 04:59:00
1 1999-12-10 00:00:00 No se informa dirección del Viento (dd), pero si una fuerza y el viento no es variable 2023-12-29 04:59:00
1 1999-12-11 00:00:00 No se informa dirección del Viento (dd), pero si una fuerza y el viento no es variable 2023-12-29 04:59:00
1 1999-12-12 00:00:00 No se informa dirección del Viento (dd), pero si una fuerza y el viento no es variable 2023-12-29 04:59:00
1 1999-12-13 00:00:00 No se informa dirección del Viento (dd), pero si una fuerza y el viento no es variable 2023-12-29 04:59:00
1 1999-12-14 00:00:00 No se informa dirección del Viento (dd), pero si una fuerza y el viento no es variable 2023-12-29 04:59:00
1 1999-12-15 00:00:00 No se informa dirección del Viento (dd), pero si una fuerza y el viento no es variable 2023-12-29 04:59:00
1 1999-12-16 00:00:00 No se informa dirección del Viento (dd), pero si una fuerza y el viento no es variable 2023-12-29 04:59:00
1 1999-12-17 00:00:00 No se informa dirección del Viento (dd), pero si una fuerza y el viento no es variable 2023-12-29 04:59:00
1 1999-12-18 00:00:00 No se informa dirección del Viento (dd), pero si una fuerza y el viento no es variable 2023-12-29 04:59:00
1 1999-12-19 00:00:00 No se informa dirección del Viento (dd), pero si una fuerza y el viento no es variable 2023-12-29 04:59:00
1 1999-12-20 00:00:00 No se informa dirección del Viento (dd), pero si una fuerza y el viento no es variable 2023-12-29 04:59:00
1 1999-12-21 00:00:00 No se informa dirección del Viento (dd), pero si una fuerza y el viento no es variable 2023-12-29 04:59:00
1 1999-12-24 00:00:00 No se informa dirección del Viento (dd), pero si una fuerza y el viento no es variable 2023-12-29 04:59:00
1 1999-12-25 00:00:00 No se informa dirección del Viento (dd), pero si una fuerza y el viento no es variable 2023-12-29 04:59:00
1 1999-12-26 00:00:00 No se informa dirección del Viento (dd), pero si una fuerza y el viento no es variable 2023-12-29 04:59:00
1 1999-12-28 00:00:00 No se informa dirección del Viento (dd), pero si una fuerza y el viento no es variable 2023-12-29 04:59:00
1 1999-12-29 00:00:00 No se informa dirección del Viento (dd), pero si una fuerza y el viento no es variable 2023-12-29 04:59:00
1 1999-12-30 00:00:00 No se informa dirección del Viento (dd), pero si una fuerza y el viento no es variable 2023-12-29 04:59:00
1 1999-12-31 00:00:00 No se informa dirección del Viento (dd), pero si una fuerza y el viento no es variable 2023-12-29 04:59:00
1 2019-10-01 09:00:00 Ts debe ser mayor o igual a Td Ts=0.9 - Td=1.4 2023-11-08 08:39:00
1 2019-10-01 11:00:00 Ts debe ser mayor o igual a Td Ts=1.0 - Td=2.2 2023-11-08 08:39:00
1 2019-10-01 12:00:00 Ts debe ser mayor o igual a Td Ts=2.2 - Td=6.8 2023-11-08 08:39:00
1 2019-10-01 12:00:00 HR (Humedad Relativa) es igual a 100% y Ts <> Td 2.2 - 6.8 2023-11-08 08:39:00
1 2019-10-01 13:00:00 Ts debe ser mayor o igual a Td Ts=6.8 - Td=8.3 2023-11-08 08:39:00
1 2019-10-02 11:00:00 Ts debe ser mayor o igual a Td Ts=0.6 - Td=4.5 2023-11-08 08:39:00
1 2019-10-02 12:00:00 Ts debe ser mayor o igual a Td Ts=4.7 - Td=4.8 2023-11-08 08:39:00
1 2019-10-02 13:00:00 Ts debe ser mayor o igual a Td Ts=5.0 - Td=7.5 2023-11-08 08:39:00
1 2019-10-03 11:00:00 Ts debe ser mayor o igual a Td Ts=4.3 - Td=4.6 2023-11-08 08:39:00
1 2019-10-03 12:00:00 Ts debe ser mayor o igual a Td Ts=5.3 - Td=5.7 2023-11-08 08:39:00
1 2019-10-03 13:00:00 Ts debe ser mayor o igual a Td Ts=6.9 - Td=7.3 2023-11-08 08:39:00
1 2019-10-04 11:00:00 Ts debe ser mayor o igual a Td Ts=2.4 - Td=3.3 2023-11-08 08:39:00
1 2019-10-04 12:00:00 Ts debe ser mayor o igual a Td Ts=3.7 - Td=5.1 2023-11-08 08:39:00
1 2019-10-04 13:00:00 Ts debe ser mayor o igual a Td Ts=5.5 - Td=5.8 2023-11-08 08:39:00
1 2019-10-05 11:00:00 Ts debe ser mayor o igual a Td Ts=3.5 - Td=3.6 2023-11-08 08:39:00
1 2019-10-06 12:00:00 Ts debe ser mayor o igual a Td Ts=6.7 - Td=7.6 2023-11-08 08:39:00
1 2019-10-07 13:00:00 Ts debe ser mayor o igual a Td Ts=10.8 - Td=11.3 2023-11-08 08:39:00
1 2019-10-12 11:00:00 Ts debe ser mayor o igual a Td Ts=9.9 - Td=10.2 2023-11-08 08:40:00
1 2019-10-12 12:00:00 Ts debe ser mayor o igual a Td Ts=10.5 - Td=10.7 2023-11-08 08:40:00
1 2019-10-12 14:00:00 Ts debe ser mayor o igual a Td Ts=11.4 - Td=11.9 2023-11-08 08:40:00
1 2019-10-15 05:00:00 Ts debe ser mayor o igual a Td Ts=9.9 - Td=10.4 2023-11-08 08:40:00
1 2019-10-15 11:00:00 Ts debe ser mayor o igual a Td Ts=5.9 - Td=8.4 2023-11-08 08:40:00
1 2019-10-15 12:00:00 Ts debe ser mayor o igual a Td Ts=8.4 - Td=11.3 2023-11-08 08:40:00
1 2019-10-15 13:00:00 Ts debe ser mayor o igual a Td Ts=11.5 - Td=14.0 2023-11-08 08:40:00
1 2019-10-16 05:00:00 Ts debe ser mayor o igual a Td Ts=8.9 - Td=9.3 2023-11-08 08:40:00
1 2019-10-18 11:00:00 Ts debe ser mayor o igual a Td Ts=6.2 - Td=7.0 2023-11-08 08:40:00
1 2019-10-19 11:00:00 Ts debe ser mayor o igual a Td Ts=7.2 - Td=7.7 2023-11-08 08:40:00
1 2019-10-20 12:00:00 Ts debe ser mayor o igual a Td Ts=9.5 - Td=9.6 2023-11-08 08:40:00
1 2019-10-20 13:00:00 Ts debe ser mayor o igual a Td Ts=10.1 - Td=10.4 2023-11-08 08:40:00
1 2019-10-21 11:00:00 Ts debe ser mayor o igual a Td Ts=7.0 - Td=7.4 2023-11-08 08:40:00
1 2019-10-25 11:00:00 Ts debe ser mayor o igual a Td Ts=7.4 - Td=7.6 2023-11-08 08:40:00
1 2019-10-27 11:00:00 Ts debe ser mayor o igual a Td Ts=10.1 - Td=10.2 2023-11-08 08:40:00
1 2019-10-27 12:00:00 Ts debe ser mayor o igual a Td Ts=10.9 - Td=11.2 2023-11-08 08:40:00
1 2019-10-28 11:00:00 Ts debe ser mayor o igual a Td Ts=8.7 - Td=9.0 2023-11-08 08:40:00
1 2019-10-30 11:00:00 Ts debe ser mayor o igual a Td Ts=5.1 - Td=7.6 2023-11-08 08:40:00
1 2019-11-01 09:00:00 Ts debe ser mayor o igual a Td Ts=5.3 - Td=5.7 2023-11-08 08:40:00
1 2019-11-02 12:00:00 Ts debe ser mayor o igual a Td Ts=8.7 - Td=9.2 2023-11-08 08:40:00
1 2019-11-03 11:00:00 Ts debe ser mayor o igual a Td Ts=8.3 - Td=8.6 2023-11-08 08:40:00
1 2019-11-05 11:00:00 Ts debe ser mayor o igual a Td Ts=8.0 - Td=8.1 2023-11-08 08:40:00
1 2019-11-05 12:00:00 Ts debe ser mayor o igual a Td Ts=8.6 - Td=8.7 2023-11-08 08:40:00
1 2019-11-05 13:00:00 Ts debe ser mayor o igual a Td Ts=9.3 - Td=10.1 2023-11-08 08:40:00
1 2019-11-11 11:00:00 Ts debe ser mayor o igual a Td Ts=9.8 - Td=14.2 2023-11-08 08:40:00
1 2019-11-12 11:00:00 Ts debe ser mayor o igual a Td Ts=10.1 - Td=13.7 2023-11-08 08:40:00
1 2019-11-13 11:00:00 Ts debe ser mayor o igual a Td Ts=10.7 - Td=13.7 2023-11-08 08:40:00
1 2019-11-13 12:00:00 Ts debe ser mayor o igual a Td Ts=14.9 - Td=15.2 2023-11-08 08:40:00
1 2019-11-17 11:00:00 Ts debe ser mayor o igual a Td Ts=9.9 - Td=10.3 2023-11-08 08:40:00
1 2019-11-22 11:00:00 Ts debe ser mayor o igual a Td Ts=9.6 - Td=12.8 2023-11-08 08:40:00
1 2019-11-23 11:00:00 Ts debe ser mayor o igual a Td Ts=9.6 - Td=13.5 2023-11-08 08:40:00
1 2019-11-29 11:00:00 Ts debe ser mayor o igual a Td Ts=8.4 - Td=9.2 2023-11-08 08:40:00
1 2019-12-02 11:00:00 Ts debe ser mayor o igual a Td Ts=10.6 - Td=12.7 2023-11-08 08:40:00
1 2019-12-07 11:00:00 Ts debe ser mayor o igual a Td Ts=9.4 - Td=10.7 2023-11-08 08:40:00
1 2019-12-08 10:00:00 Ts debe ser mayor o igual a Td Ts=7.9 - Td=8.0 2023-11-08 08:40:00
1 2019-12-08 11:00:00 Ts debe ser mayor o igual a Td Ts=8.7 - Td=11.7 2023-11-08 08:40:00
1 2019-12-09 11:00:00 Ts debe ser mayor o igual a Td Ts=9.6 - Td=11.4 2023-11-08 08:40:00
1 2019-12-09 12:00:00 Ts debe ser mayor o igual a Td Ts=12.3 - Td=13.2 2023-11-08 08:40:00
1 2019-12-10 11:00:00 Ts debe ser mayor o igual a Td Ts=10.1 - Td=11.8 2023-11-08 08:40:00
1 2023-06-22 15:00:00 qfe debe ser menor o igual a qff 1049.6 - 1017.9 2023-06-22 16:30:00
1 2023-08-23 18:00:00 qfe debe ser menor o igual a qff 1049.3 - 1017.2 2023-08-23 19:30:00
Errores del Nivel 156
Nivel Fecha del Dato Descripción Información Error Fecha Ingreso
2 1990-06-24 12:00:00 Temperatura 5.0 del 24-06-1990 12:00, Menor que la Mínima 5.1 24-06-1990 12:00 5.0 -- 5.1 2023-12-29 04:44:00
2 1990-07-31 12:00:00 Temperatura 6.0 del 31-07-1990 12:00, Menor que la Mínima 6.3 31-07-1990 12:00 6.0 -- 6.3 2023-12-29 04:44:00
2 1991-04-13 12:00:00 Temperatura 12.2 del 13-04-1991 12:00, Menor que la Mínima 14.5 13-04-1991 12:00 12.2 -- 14.5 2023-12-29 04:45:00
2 1999-05-28 12:00:00 Temperatura 9.4 del 28-05-1999 12:00, Menor que la Mínima 9.9 28-05-1999 12:00 9.4 -- 9.9 2023-12-29 04:58:00
2 2000-05-01 12:00:00 Temperatura 10.8 del 01-05-2000 12:00, Menor que la Mínima 11.1 01-05-2000 12:00 10.8 -- 11.1 2023-12-29 04:59:00
2 2001-05-12 12:00:00 Temperatura -1.0 del 12-05-2001 12:00, Menor que la Mínima 0.1 12-05-2001 12:00 -1.0 -- 0.1 2023-12-29 05:00:00
2 2001-06-05 12:00:00 Temperatura 0.5 del 05-06-2001 12:00, Menor que la Mínima 0.9 05-06-2001 12:00 0.5 -- 0.9 2023-12-29 05:00:00
2 2001-08-10 12:00:00 Temperatura 5.6 del 10-08-2001 12:00, Menor que la Mínima 6.0 10-08-2001 12:00 5.6 -- 6.0 2023-12-29 05:01:00
2 2001-08-11 12:00:00 Temperatura 9.6 del 11-08-2001 12:00, Menor que la Mínima 10.0 11-08-2001 12:00 9.6 -- 10.0 2023-12-29 05:01:00
2 2001-08-16 12:00:00 Temperatura 2.9 del 16-08-2001 12:00, Menor que la Mínima 3.0 16-08-2001 12:00 2.9 -- 3.0 2023-12-29 05:01:00
2 2001-08-29 12:00:00 Temperatura 8.0 del 29-08-2001 12:00, Menor que la Mínima 8.2 29-08-2001 12:00 8.0 -- 8.2 2023-12-29 05:01:00
2 2001-09-02 12:00:00 Temperatura 3.4 del 02-09-2001 12:00, Menor que la Mínima 3.6 02-09-2001 12:00 3.4 -- 3.6 2023-12-29 05:01:00
2 2001-09-23 12:00:00 Temperatura 10.4 del 23-09-2001 12:00, Menor que la Mínima 11.0 23-09-2001 12:00 10.4 -- 11.0 2023-12-29 05:01:00
2 2001-10-02 12:00:00 Temperatura 13.9 del 02-10-2001 12:00, Menor que la Mínima 14.0 02-10-2001 12:00 13.9 -- 14.0 2023-12-29 05:01:00
2 2001-10-03 12:00:00 Temperatura 10.8 del 03-10-2001 12:00, Menor que la Mínima 11.8 03-10-2001 12:00 10.8 -- 11.8 2023-12-29 05:01:00
2 2001-10-19 12:00:00 Temperatura 10.6 del 19-10-2001 12:00, Menor que la Mínima 11.0 19-10-2001 12:00 10.6 -- 11.0 2023-12-29 05:01:00
2 2001-10-20 12:00:00 Temperatura 6.4 del 20-10-2001 12:00, Menor que la Mínima 6.5 20-10-2001 12:00 6.4 -- 6.5 2023-12-29 05:01:00
2 2002-07-18 12:00:00 Temperatura 2.6 del 18-07-2002 12:00, Menor que la Mínima 6.0 18-07-2002 12:00 2.6 -- 6.0 2023-12-29 05:02:00
2 1991-06-09 00:00:00 Temperatura 18.0 del 08-06-1991 18:00, Mayor que la Máxima 13.0 09-06-1991 00:00 18.0 -- 13.0 2023-12-29 04:46:00
2 1997-10-08 00:00:00 Temperatura 19.2 del 07-10-1997 18:00, Mayor que la Máxima 17.0 08-10-1997 00:00 19.2 -- 17.0 2023-12-29 04:56:00
2 1999-05-14 00:00:00 Temperatura 11.8 del 13-05-1999 18:00, Mayor que la Máxima 11.0 14-05-1999 00:00 11.8 -- 11.0 2023-12-29 04:58:00
2 1999-08-11 00:00:00 Temperatura 19.6 del 10-08-1999 18:00, Mayor que la Máxima 16.1 11-08-1999 00:00 19.6 -- 16.1 2023-12-29 04:58:00
2 1999-11-23 00:00:00 Temperatura 26.2 del 22-11-1999 18:00, Mayor que la Máxima 25.9 23-11-1999 00:00 26.2 -- 25.9 2023-12-29 04:59:00
2 2000-05-06 00:00:00 Temperatura 18.8 del 05-05-2000 18:00, Mayor que la Máxima 18.0 06-05-2000 00:00 18.8 -- 18.0 2023-12-29 04:59:00
2 2000-05-09 00:00:00 Temperatura 18.0 del 08-05-2000 18:00, Mayor que la Máxima 17.0 09-05-2000 00:00 18.0 -- 17.0 2023-12-29 04:59:00
2 2000-05-11 00:00:00 Temperatura 14.2 del 10-05-2000 18:00, Mayor que la Máxima 13.5 11-05-2000 00:00 14.2 -- 13.5 2023-12-29 04:59:00
2 2000-05-13 00:00:00 Temperatura 16.0 del 12-05-2000 18:00, Mayor que la Máxima 15.5 13-05-2000 00:00 16.0 -- 15.5 2023-12-29 04:59:00
2 2000-10-02 00:00:00 Temperatura 14.8 del 02-10-2000 00:00, Mayor que la Máxima 14.6 02-10-2000 00:00 14.8 -- 14.6 2023-12-29 05:00:00
2 2001-04-11 00:00:00 Temperatura 17.2 del 10-04-2001 18:00, Mayor que la Máxima 17.0 11-04-2001 00:00 17.2 -- 17.0 2023-12-29 05:00:00
2 2001-04-12 00:00:00 Temperatura 22.2 del 11-04-2001 18:00, Mayor que la Máxima 22.0 12-04-2001 00:00 22.2 -- 22.0 2023-12-29 05:00:00
2 2001-04-14 00:00:00 Temperatura 16.0 del 14-04-2001 00:00, Mayor que la Máxima 15.5 14-04-2001 00:00 16.0 -- 15.5 2023-12-29 05:00:00
2 2001-04-20 00:00:00 Temperatura 19.9 del 20-04-2001 00:00, Mayor que la Máxima 18.0 20-04-2001 00:00 19.9 -- 18.0 2023-12-29 05:00:00
2 2001-04-22 00:00:00 Temperatura 14.1 del 21-04-2001 18:00, Mayor que la Máxima 14.0 22-04-2001 00:00 14.1 -- 14.0 2023-12-29 05:00:00
2 2001-05-01 00:00:00 Temperatura 13.6 del 30-04-2001 18:00, Mayor que la Máxima 13.5 01-05-2001 00:00 13.6 -- 13.5 2023-12-29 05:00:00
2 2001-05-06 00:00:00 Temperatura 11.6 del 05-05-2001 18:00, Mayor que la Máxima 11.0 06-05-2001 00:00 11.6 -- 11.0 2023-12-29 05:00:00
2 2001-05-09 00:00:00 Temperatura 13.1 del 08-05-2001 18:00, Mayor que la Máxima 12.6 09-05-2001 00:00 13.1 -- 12.6 2023-12-29 05:00:00
2 2001-05-10 00:00:00 Temperatura 13.2 del 09-05-2001 18:00, Mayor que la Máxima 9.0 10-05-2001 00:00 13.2 -- 9.0 2023-12-29 05:00:00
2 2001-05-12 00:00:00 Temperatura 8.5 del 11-05-2001 18:00, Mayor que la Máxima 7.0 12-05-2001 00:00 8.5 -- 7.0 2023-12-29 05:00:00
2 2001-05-14 00:00:00 Temperatura 11.5 del 13-05-2001 18:00, Mayor que la Máxima 11.1 14-05-2001 00:00 11.5 -- 11.1 2023-12-29 05:00:00
2 2001-05-15 00:00:00 Temperatura 11.5 del 14-05-2001 18:00, Mayor que la Máxima 11.0 15-05-2001 00:00 11.5 -- 11.0 2023-12-29 05:00:00
2 2001-05-17 00:00:00 Temperatura 16.2 del 16-05-2001 18:00, Mayor que la Máxima 16.0 17-05-2001 00:00 16.2 -- 16.0 2023-12-29 05:00:00
2 2001-05-19 00:00:00 Temperatura 16.2 del 18-05-2001 18:00, Mayor que la Máxima 16.0 19-05-2001 00:00 16.2 -- 16.0 2023-12-29 05:00:00
2 2001-05-22 00:00:00 Temperatura 12.4 del 21-05-2001 18:00, Mayor que la Máxima 12.0 22-05-2001 00:00 12.4 -- 12.0 2023-12-29 05:00:00
2 2001-05-23 00:00:00 Temperatura 18.6 del 22-05-2001 18:00, Mayor que la Máxima 18.0 23-05-2001 00:00 18.6 -- 18.0 2023-12-29 05:00:00
2 2001-05-24 00:00:00 Temperatura 15.6 del 23-05-2001 18:00, Mayor que la Máxima 15.5 24-05-2001 00:00 15.6 -- 15.5 2023-12-29 05:00:00
2 2001-05-25 00:00:00 Temperatura 11.2 del 24-05-2001 18:00, Mayor que la Máxima 10.9 25-05-2001 00:00 11.2 -- 10.9 2023-12-29 05:00:00
2 2001-05-26 00:00:00 Temperatura 13.2 del 25-05-2001 18:00, Mayor que la Máxima 12.0 26-05-2001 00:00 13.2 -- 12.0 2023-12-29 05:00:00
2 2001-05-28 00:00:00 Temperatura 18.6 del 27-05-2001 18:00, Mayor que la Máxima 17.0 28-05-2001 00:00 18.6 -- 17.0 2023-12-29 05:00:00
2 2001-05-29 00:00:00 Temperatura 21.0 del 28-05-2001 18:00, Mayor que la Máxima 18.0 29-05-2001 00:00 21.0 -- 18.0 2023-12-29 05:00:00
2 2001-05-30 00:00:00 Temperatura 11.0 del 29-05-2001 18:00, Mayor que la Máxima 10.0 30-05-2001 00:00 11.0 -- 10.0 2023-12-29 05:00:00
2 2001-05-31 00:00:00 Temperatura 14.0 del 30-05-2001 18:00, Mayor que la Máxima 11.0 31-05-2001 00:00 14.0 -- 11.0 2023-12-29 05:00:00
2 2001-06-14 00:00:00 Temperatura 12.2 del 14-06-2001 00:00, Mayor que la Máxima 12.0 14-06-2001 00:00 12.2 -- 12.0 2023-12-29 05:00:00
2 2001-06-28 00:00:00 Temperatura 14.1 del 27-06-2001 18:00, Mayor que la Máxima 14.0 28-06-2001 00:00 14.1 -- 14.0 2023-12-29 05:00:00
2 2001-07-07 00:00:00 Temperatura 12.4 del 06-07-2001 18:00, Mayor que la Máxima 12.0 07-07-2001 00:00 12.4 -- 12.0 2023-12-29 05:00:00
2 2001-07-08 00:00:00 Temperatura 11.4 del 07-07-2001 18:00, Mayor que la Máxima 11.2 08-07-2001 00:00 11.4 -- 11.2 2023-12-29 05:00:00
2 2001-07-26 00:00:00 Temperatura 9.0 del 26-07-2001 00:00, Mayor que la Máxima 6.8 26-07-2001 00:00 9.0 -- 6.8 2023-12-29 05:00:00
2 2001-08-01 00:00:00 Temperatura 13.2 del 31-07-2001 18:00, Mayor que la Máxima 13.0 01-08-2001 00:00 13.2 -- 13.0 2023-12-29 05:00:00
2 2001-08-30 00:00:00 Temperatura 10.0 del 30-08-2001 00:00, Mayor que la Máxima 9.2 30-08-2001 00:00 10.0 -- 9.2 2023-12-29 05:01:00
2 2002-11-07 00:00:00 Temperatura 16.8 del 06-11-2002 18:00, Mayor que la Máxima 13.0 07-11-2002 00:00 16.8 -- 13.0 2023-12-29 05:03:00
2 2005-04-19 00:00:00 Temperatura 24.4 del 18-04-2005 18:00, Mayor que la Máxima 21.5 19-04-2005 00:00 24.4 -- 21.5 2023-12-31 02:44:00
Errores del Nivel 60
Informe generado el 23-02-2024 11:08
Requerimiento: RE6001